Olympic Scout — WDD7216 — position and weather

sailwx.info

Track history (hours):
 
Tides and Currents Weather Stations Pressure Air Temp Water Temp Dewpoint Dewpoint Depression Visibility Wind Speed Wind Dir Waves Ship Positions

Olympic Scout

Owner: Harley Marine Services, Inc., Seattle, WA. More information available from US FCC via Universal Licensing System and Coast Guard Vessel Documentation Center.

Last reported at 2017-Dec-11 14:59 UTC. Time now 2017-Dec-13 09:02 UTC.
Position N 47°16' W 122°25'.

Length 31 m; draft 0.3 m.

Type: Tug. MMSI: 366998440.

Date/timePositionNaut miles runAvg speedWind from/ knotsBaromVisibWave heightAir tempDewpointWater temp
2017-Dec-11 14:59N 47°16' W 122°25'0 0.1
2017-Dec-11 14:23N 47°16' W 122°25'0 0.1
2017-Dec-11 13:56N 47°16' W 122°25'0 0.0
2017-Dec-11 13:26N 47°16' W 122°25'0 0.1
2017-Dec-11 12:56N 47°16' W 122°25'0 0.1
2017-Dec-11 12:20N 47°16' W 122°25'0 0.0
2017-Dec-11 11:59N 47°16' W 122°25'0 0.0
2017-Dec-11 10:23N 47°16' W 122°25'0 0.0
2017-Dec-10 22:47N 47°16' W 122°25'1 2.4
2017-Dec-10 22:30N 47°17' W 122°25'1 0.8
2017-Dec-10 21:53N 47°17' W 122°25'0 0.0
2017-Dec-10 21:29N 47°17' W 122°25'0 0.0
2017-Dec-10 20:59N 47°17' W 122°25'0 0.0
2017-Dec-10 20:29N 47°17' W 122°25'0 0.0
2017-Dec-10 19:59N 47°17' W 122°25'0 0.0
2017-Dec-10 19:29N 47°17' W 122°25'0 0.0
2017-Dec-10 18:53N 47°17' W 122°25'0 0.0
2017-Dec-10 18:29N 47°17' W 122°25'0 0.0
2017-Dec-10 17:59N 47°17' W 122°25'0 0.0
2017-Dec-10 17:26N 47°17' W 122°25'0 0.0
2017-Dec-10 16:50N 47°17' W 122°25'0 0.0
2017-Dec-10 16:29N 47°17' W 122°25'0 0.0
2017-Dec-10 15:59N 47°17' W 122°25'0 0.0
2017-Dec-10 15:29N 47°17' W 122°25'0 0.0
2017-Dec-10 14:59N 47°17' W 122°25'0 0.0
2017-Dec-10 14:29N 47°17' W 122°25'0 0.0
2017-Dec-10 13:59N 47°17' W 122°25'0 0.0
2017-Dec-10 13:29N 47°17' W 122°25'0 0.1
2017-Dec-10 12:58N 47°17' W 122°25'2 3.4
2017-Dec-10 12:30N 47°17' W 122°27'0 0.8
2017-Dec-10 12:01N 47°17' W 122°27'2 3.2
2017-Dec-10 11:30N 47°19' W 122°29'1 2.1
2017-Dec-10 11:00N 47°18' W 122°28'0 0.3
2017-Dec-10 10:30N 47°18' W 122°28'2 3.7
2017-Dec-10 10:00N 47°19' W 122°28'2 3.4
2017-Dec-10 09:30N 47°21' W 122°26'2 3.5
2017-Dec-10 09:00N 47°22' W 122°24'2 3.3
2017-Dec-10 08:30N 47°23' W 122°22'1 2.8
2017-Dec-10 08:00N 47°24' W 122°22'2 3.9
2017-Dec-10 07:31N 47°26' W 122°24'2 3.7
2017-Dec-10 07:01N 47°27' W 122°25'2 3.6
2017-Dec-10 06:31N 47°29' W 122°26'2 3.3
2017-Dec-10 06:00N 47°31' W 122°26'2 3.5
2017-Dec-10 05:30N 47°32' W 122°27'2 3.8
2017-Dec-10 05:00N 47°34' W 122°28'2 3.3
2017-Dec-10 04:31N 47°36' W 122°26'2 4.3
2017-Dec-10 04:00N 47°36' W 122°23'2 3.8
2017-Dec-10 03:30N 47°36' W 122°21'0 0.6
2017-Dec-10 02:58N 47°35' W 122°21'0 0.0
2017-Dec-10 02:25N 47°35' W 122°21'0 0.1
2017-Dec-10 01:55N 47°35' W 122°21'0 0.1
2017-Dec-10 01:28N 47°35' W 122°21'0 0.0
2017-Dec-10 00:58N 47°35' W 122°21'0 0.0
2017-Dec-10 00:28N 47°35' W 122°21'0 0.0
2017-Dec-09 23:58N 47°35' W 122°21'0 0.0
2017-Dec-09 23:28N 47°35' W 122°21'0 0.0
2017-Dec-09 22:55N 47°35' W 122°21'0 0.0
2017-Dec-09 22:28N 47°35' W 122°21'0 0.0
2017-Dec-09 21:55N 47°35' W 122°21'0 0.0
2017-Dec-09 21:28N 47°35' W 122°21'1 1.8
2017-Dec-09 20:58N 47°34' W 122°21'0 0.1
2017-Dec-09 20:19N 47°34' W 122°21'0 0.2
2017-Dec-09 20:00N 47°34' W 122°21'0 0.0
2017-Dec-09 19:30N 47°34' W 122°21'0 0.0
2017-Dec-09 19:00N 47°34' W 122°21'0 0.0
2017-Dec-09 18:30N 47°34' W 122°21'0 0.0
2017-Dec-09 18:00N 47°34' W 122°21'0 0.0
2017-Dec-09 17:30N 47°34' W 122°21'0 0.0
2017-Dec-09 16:57N 47°34' W 122°21'0 0.0
2017-Dec-09 16:30N 47°34' W 122°21'0 0.0
2017-Dec-09 16:00N 47°34' W 122°21'0 0.0
2017-Dec-09 15:30N 47°34' W 122°21'0 0.0
2017-Dec-09 15:00N 47°34' W 122°21'0 0.0
2017-Dec-09 14:30N 47°34' W 122°21'0 0.0
2017-Dec-09 14:00N 47°34' W 122°21'0 0.0
2017-Dec-09 13:30N 47°34' W 122°21'0 0.0
2017-Dec-09 13:00N 47°34' W 122°21'0 0.0
2017-Dec-09 12:24N 47°34' W 122°21'0 0.0
2017-Dec-09 12:00N 47°34' W 122°21'0 0.0
2017-Dec-09 11:30N 47°34' W 122°21'0 0.1
2017-Dec-09 11:00N 47°34' W 122°21'0 0.1
2017-Dec-09 10:30N 47°34' W 122°21'0 0.0
2017-Dec-09 10:00N 47°34' W 122°21'0 0.0
2017-Dec-09 09:27N 47°34' W 122°21'0 0.0
2017-Dec-09 09:00N 47°34' W 122°21'0 0.0
2017-Dec-09 08:30N 47°34' W 122°21'0 0.0
2017-Dec-09 08:00N 47°34' W 122°21'0 0.0
2017-Dec-09 07:30N 47°34' W 122°21'0 0.0
2017-Dec-09 06:57N 47°34' W 122°21'0 0.0
2017-Dec-09 06:27N 47°34' W 122°21'0 0.0
2017-Dec-09 05:57N 47°34' W 122°21'0 0.0
2017-Dec-09 05:30N 47°34' W 122°21'0 0.0
2017-Dec-09 05:00N 47°34' W 122°21'0 0.0
2017-Dec-09 04:29N 47°34' W 122°21'0 0.0
2017-Dec-09 03:59N 47°34' W 122°21'0 0.0
2017-Dec-09 03:29N 47°34' W 122°21'0 0.0
2017-Dec-09 02:59N 47°34' W 122°21'0 0.0
2017-Dec-09 02:30N 47°34' W 122°21'0 0.0
2017-Dec-09 02:00N 47°34' W 122°21'0 0.0
2017-Dec-09 01:30N 47°34' W 122°21'0 0.0
2017-Dec-09 01:00N 47°34' W 122°21'0 0.1
2017-Dec-09 00:30N 47°34' W 122°21'0 0.0
2017-Dec-09 00:00N 47°34' W 122°21'0 0.0
2017-Dec-08 23:30N 47°34' W 122°21'0 0.0
2017-Dec-08 23:00N 47°34' W 122°21'0 0.0
2017-Dec-08 22:30N 47°34' W 122°21'0 0.0
2017-Dec-08 22:00N 47°34' W 122°21'0 0.0
2017-Dec-08 21:30N 47°34' W 122°21'0 0.1
2017-Dec-08 21:00N 47°34' W 122°21'0 0.0
2017-Dec-08 20:30N 47°34' W 122°21'0 0.0
2017-Dec-08 20:00N 47°34' W 122°21'0 0.0
2017-Dec-08 19:30N 47°34' W 122°21'0 0.1
2017-Dec-08 19:00N 47°34' W 122°21'0 0.0
2017-Dec-08 18:30N 47°34' W 122°21'0 0.0
2017-Dec-08 18:01N 47°34' W 122°21'0 0.0
2017-Dec-08 17:30N 47°34' W 122°21'0 0.0
2017-Dec-08 17:00N 47°34' W 122°21'0 0.0
2017-Dec-08 16:31N 47°34' W 122°21'0 0.1
2017-Dec-08 16:00N 47°34' W 122°21'0 0.0
2017-Dec-08 15:30N 47°34' W 122°21'0 0.0
2017-Dec-08 15:00N 47°34' W 122°21'0 0.0
2017-Dec-08 14:30N 47°34' W 122°21'0 0.0
2017-Dec-08 14:00N 47°34' W 122°21'0 0.0
2017-Dec-08 13:30N 47°34' W 122°21'0 0.0
2017-Dec-08 12:59N 47°34' W 122°21'0 0.0
2017-Dec-08 12:30N 47°34' W 122°21'0 0.0
2017-Dec-08 12:00N 47°34' W 122°21'0 0.0
2017-Dec-08 11:30N 47°34' W 122°21'0 0.0
2017-Dec-08 11:00N 47°34' W 122°21'0 0.0
2017-Dec-08 10:30N 47°34' W 122°21'0 0.0
2017-Dec-08 10:00N 47°34' W 122°21'0 0.0
2017-Dec-08 09:30N 47°34' W 122°21'0 0.0
2017-Dec-08 09:00N 47°34' W 122°21'0 0.0
2017-Dec-08 08:30N 47°34' W 122°21'0 0.0
2017-Dec-08 08:00N 47°34' W 122°21'0 0.0
2017-Dec-08 07:30N 47°34' W 122°21'0 0.0
2017-Dec-08 06:59N 47°34' W 122°21'0 0.0
2017-Dec-08 06:09N 47°34' W 122°21'0 0.0
2017-Dec-08 06:00N 47°34' W 122°21'0 0.0
2017-Dec-08 05:30N 47°34' W 122°21'0 0.0
2017-Dec-08 05:00N 47°34' W 122°21'0 0.0
2017-Dec-08 04:30N 47°34' W 122°21'0 0.0
2017-Dec-08 04:00N 47°34' W 122°21'0 0.0
2017-Dec-08 03:30N 47°34' W 122°21'0 0.0
2017-Dec-08 03:00N 47°34' W 122°21'0 0.0
2017-Dec-08 02:30N 47°34' W 122°21'1 2.4
2017-Dec-08 02:00N 47°36' W 122°21'3 6.0
2017-Dec-08 01:30N 47°35' W 122°25'3 6.1
2017-Dec-08 01:00N 47°32' W 122°25'3 6.3
2017-Dec-08 00:30N 47°29' W 122°24'3 6.1
2017-Dec-08 00:00N 47°26' W 122°23'3 6.7
2017-Dec-07 23:30N 47°23' W 122°21'3 6.4
2017-Dec-07 23:00N 47°21' W 122°24'3 6.5
2017-Dec-07 22:30N 47°18' W 122°27'3 6.0
2017-Dec-07 21:59N 47°16' W 122°24'1 2.4
2017-Dec-07 21:30N 47°15' W 122°23'0 0.0
2017-Dec-07 21:00N 47°15' W 122°23'0 0.0
2017-Dec-07 20:30N 47°15' W 122°23'0 1.0
2017-Dec-07 20:00N 47°16' W 122°23'0 1.0
2017-Dec-07 19:30N 47°15' W 122°23'0 0.0
2017-Dec-07 19:00N 47°15' W 122°23'0 0.0
2017-Dec-07 18:30N 47°15' W 122°23'0 0.0
2017-Dec-07 18:00N 47°15' W 122°23'1 1.8
2017-Dec-07 17:25N 47°16' W 122°24'1 1.4
2017-Dec-07 17:00N 47°16' W 122°23'1 1.1
2017-Dec-07 16:30N 47°15' W 122°23'0 0.0
2017-Dec-07 16:00N 47°15' W 122°23'0 0.0
2017-Dec-07 15:21N 47°15' W 122°23'0 0.0
2017-Dec-07 15:00N 47°15' W 122°23'0 0.0
2017-Dec-07 14:00N 47°15' W 122°23'0 0.0
2017-Dec-07 13:30N 47°15' W 122°23'0 0.0
2017-Dec-07 12:54N 47°15' W 122°23'0 0.0
2017-Dec-07 12:30N 47°15' W 122°23'0 0.0
2017-Dec-07 11:55N 47°15' W 122°23'0 0.0
2017-Dec-07 11:22N 47°15' W 122°23'0 0.3
2017-Dec-07 11:00N 47°15' W 122°23'0 0.1
2017-Dec-07 10:29N 47°15' W 122°23'2 3.2
2017-Dec-07 10:00N 47°16' W 122°24'1 0.1
2017-Dec-07 02:18N 47°17' W 122°25'1 2.5
2017-Dec-07 01:57N 47°16' W 122°24'1 2.0
2017-Dec-07 01:30N 47°16' W 122°23'0 0.0
2017-Dec-07 00:58N 47°16' W 122°23'0 0.0
2017-Dec-07 00:30N 47°16' W 122°23'0 0.0
2017-Dec-06 23:59N 47°16' W 122°23'0 0.0
2017-Dec-06 23:30N 47°16' W 122°23'1 2.7
2017-Dec-06 23:00N 47°16' W 122°25'0 0.3
2017-Dec-06 22:30N 47°17' W 122°25'0 0.0
2017-Dec-06 22:00N 47°17' W 122°25'0 0.0
2017-Dec-06 21:30N 47°17' W 122°25'0 0.0
2017-Dec-06 21:00N 47°17' W 122°25'  
2017-Dec-04 06:36N 47°17' W 122°24'0 3.9
2017-Dec-04 06:30N 47°17' W 122°25'1 2.7
2017-Dec-04 06:00N 47°18' W 122°27'3 6.2
2017-Dec-04 05:30N 47°21' W 122°26'4 7.1
2017-Dec-04 05:00N 47°23' W 122°22'3 6.8
2017-Dec-04 04:30N 47°26' W 122°24'3 6.9
2017-Dec-04 04:00N 47°29' W 122°26'3 6.9
2017-Dec-04 03:30N 47°33' W 122°27'3 6.5
2017-Dec-04 03:00N 47°36' W 122°25'2 4.8
2017-Dec-04 02:30N 47°36' W 122°21'0 0.3
2017-Dec-04 02:00N 47°35' W 122°21'0 0.0
2017-Dec-04 01:30N 47°35' W 122°21'0 0.0
2017-Dec-04 01:00N 47°35' W 122°21'0 0.0
2017-Dec-04 00:30N 47°35' W 122°21'0 0.0
2017-Dec-04 00:00N 47°35' W 122°21'0 0.0
2017-Dec-03 23:30N 47°35' W 122°21'0 0.0
2017-Dec-03 23:00N 47°35' W 122°21'0 0.2
2017-Dec-03 22:30N 47°35' W 122°21'1 1.8
2017-Dec-03 22:00N 47°34' W 122°21'0 0.0
2017-Dec-03 21:30N 47°34' W 122°21'0 0.0
2017-Dec-03 21:00N 47°34' W 122°21'0 0.0
2017-Dec-03 20:30N 47°34' W 122°21'0 0.0
2017-Dec-03 20:00N 47°34' W 122°21'0 0.0
2017-Dec-03 19:30N 47°34' W 122°21'0 0.0
2017-Dec-03 19:00N 47°34' W 122°21'0 0.0
2017-Dec-03 18:30N 47°34' W 122°21'0 0.0
2017-Dec-03 18:00N 47°34' W 122°21'0 0.0
2017-Dec-03 17:30N 47°34' W 122°21'0 0.0
2017-Dec-03 17:00N 47°34' W 122°21'1 1.3
2017-Dec-03 16:30N 47°35' W 122°21'1 1.1
2017-Dec-03 16:00N 47°36' W 122°21'0 0.3
2017-Dec-03 15:30N 47°35' W 122°21'0 0.1
2017-Dec-03 15:00N 47°35' W 122°21'0 0.0
2017-Dec-03 14:30N 47°35' W 122°21'0 0.0
2017-Dec-03 14:00N 47°35' W 122°21'0 0.0
2017-Dec-03 13:30N 47°35' W 122°21'0 0.0
2017-Dec-03 13:00N 47°35' W 122°21'0 0.0
2017-Dec-03 12:30N 47°35' W 122°21'0 0.0
2017-Dec-03 12:00N 47°35' W 122°21'0 0.0
2017-Dec-03 11:30N 47°35' W 122°21'0 0.0
2017-Dec-03 11:00N 47°35' W 122°21'0 0.0
2017-Dec-03 10:30N 47°35' W 122°21'0 0.0
2017-Dec-03 10:00N 47°35' W 122°21'0 0.0
2017-Dec-03 09:30N 47°35' W 122°21'0 0.0
2017-Dec-03 09:00N 47°35' W 122°21'0 0.0
2017-Dec-03 08:30N 47°35' W 122°21'0 0.0
2017-Dec-03 08:00N 47°35' W 122°21'0 0.0
2017-Dec-03 07:30N 47°35' W 122°21'0 0.0
2017-Dec-03 07:00N 47°35' W 122°21'0 0.0
2017-Dec-03 06:30N 47°35' W 122°21'0 0.0
2017-Dec-03 06:00N 47°35' W 122°21'0 0.0
2017-Dec-03 05:30N 47°35' W 122°21'0 0.0
2017-Dec-03 05:00N 47°35' W 122°21'0 0.0
2017-Dec-03 04:30N 47°35' W 122°21'0 0.0
2017-Dec-03 04:00N 47°35' W 122°21'0 0.1
2017-Dec-03 03:30N 47°35' W 122°21'0 0.7
2017-Dec-03 03:00N 47°35' W 122°21'0 0.1
2017-Dec-03 02:30N 47°35' W 122°21'0 0.3
2017-Dec-03 02:00N 47°35' W 122°21'0 0.0
2017-Dec-03 01:30N 47°35' W 122°21'0 0.0
2017-Dec-03 01:00N 47°35' W 122°21'0 0.0
2017-Dec-03 00:30N 47°35' W 122°21'0 0.0
2017-Dec-03 00:01N 47°35' W 122°21'0 0.0
2017-Dec-02 23:30N 47°35' W 122°21'0 0.0
2017-Dec-02 23:00N 47°35' W 122°21'0 0.0
2017-Dec-02 22:30N 47°35' W 122°21'0 0.0
2017-Dec-02 22:00N 47°35' W 122°21'0 0.1
2017-Dec-02 21:30N 47°35' W 122°21'0 0.3
2017-Dec-02 21:00N 47°35' W 122°21'0 0.0
2017-Dec-02 20:30N 47°35' W 122°21'0 0.1
2017-Dec-02 20:00N 47°35' W 122°21'0 0.1
2017-Dec-02 19:30N 47°35' W 122°21'0 0.0
2017-Dec-02 19:00N 47°35' W 122°21'0 0.0
2017-Dec-02 18:30N 47°35' W 122°21'0 0.0
2017-Dec-02 18:01N 47°35' W 122°21'0 0.0
2017-Dec-02 17:30N 47°35' W 122°21'0 0.0
2017-Dec-02 17:00N 47°35' W 122°21'0 0.0
2017-Dec-02 16:30N 47°35' W 122°21'0 0.0
2017-Dec-02 16:00N 47°35' W 122°21'0 0.0
2017-Dec-02 15:30N 47°35' W 122°21'0 0.0
2017-Dec-02 15:01N 47°35' W 122°21'0 0.2
2017-Dec-02 14:30N 47°35' W 122°21'0 0.2
2017-Dec-02 14:00N 47°35' W 122°21'1 1.3
2017-Dec-02 13:30N 47°35' W 122°21'0 0.1
2017-Dec-02 13:00N 47°35' W 122°21'0 0.1
2017-Dec-02 12:31N 47°35' W 122°21'0 0.1
2017-Dec-02 12:00N 47°35' W 122°21'0 0.0
2017-Dec-02 11:30N 47°35' W 122°21'0 0.0
2017-Dec-02 11:00N 47°35' W 122°21'0 0.0
2017-Dec-02 10:30N 47°35' W 122°21'0 0.0
2017-Dec-02 10:00N 47°35' W 122°21'0 0.0
2017-Dec-02 09:30N 47°35' W 122°21'0 0.0
2017-Dec-02 09:00N 47°35' W 122°21'0 0.0
2017-Dec-02 08:30N 47°35' W 122°21'0 0.0
2017-Dec-02 08:00N 47°35' W 122°21'0 0.0
2017-Dec-02 07:30N 47°35' W 122°21'0 0.0
2017-Dec-02 07:00N 47°35' W 122°21'0 0.0
2017-Dec-02 06:30N 47°35' W 122°21'0 0.0
2017-Dec-02 06:00N 47°35' W 122°21'0 0.0
2017-Dec-02 05:30N 47°35' W 122°21'0 0.0
2017-Dec-02 05:00N 47°35' W 122°21'0 0.0
2017-Dec-02 04:30N 47°35' W 122°21'0 0.0
2017-Dec-02 04:00N 47°35' W 122°21'0 0.0
2017-Dec-02 03:30N 47°35' W 122°21'0 0.0
2017-Dec-02 03:00N 47°35' W 122°21'0 0.0
2017-Dec-02 02:30N 47°35' W 122°21'0 0.0
2017-Dec-02 02:00N 47°35' W 122°21'0 0.4
2017-Dec-02 01:30N 47°36' W 122°21'0 0.2
2017-Dec-02 01:00N 47°36' W 122°21'0 0.2
2017-Dec-02 00:30N 47°35' W 122°21'1 2.1
2017-Dec-02 00:00N 47°34' W 122°21'0 0.1
2017-Dec-01 23:30N 47°34' W 122°21'0 0.0
2017-Dec-01 22:59N 47°34' W 122°21'0 0.0
2017-Dec-01 22:30N 47°34' W 122°21'0 0.0
2017-Dec-01 22:01N 47°34' W 122°21'0 0.0
2017-Dec-01 21:30N 47°34' W 122°21'1 2.3
2017-Dec-01 21:00N 47°35' W 122°21'0 0.0
2017-Dec-01 20:30N 47°35' W 122°21'0 0.1
2017-Dec-01 20:00N 47°35' W 122°21'0 0.1
2017-Dec-01 19:30N 47°35' W 122°21'0 0.1
2017-Dec-01 19:00N 47°35' W 122°21'0 0.1
2017-Dec-01 18:30N 47°35' W 122°21'0 0.1
2017-Dec-01 18:00N 47°35' W 122°21'0 0.0
2017-Dec-01 17:30N 47°35' W 122°21'0 0.0
2017-Dec-01 17:00N 47°35' W 122°21'0 0.0
2017-Dec-01 16:30N 47°35' W 122°21'0 0.0
2017-Dec-01 16:00N 47°35' W 122°21'0 0.0
2017-Dec-01 15:30N 47°35' W 122°21'0 0.0
2017-Dec-01 15:00N 47°35' W 122°21'  
Track history (hours):
 
Tides and Currents Weather Stations Pressure Air Temp Water Temp Dewpoint Dewpoint Depression Visibility Wind Speed Wind Dir Waves Ship Positions

Olympic Scout

Owner: Harley Marine Services, Inc., Seattle, WA. More information available from US FCC via Universal Licensing System and Coast Guard Vessel Documentation Center.

Last reported at 2017-Dec-11 14:59 UTC. Time now 2017-Dec-13 09:02 UTC.
Position N 47°16' W 122°25'.

Length 31 m; draft 0.3 m.

Type: Tug. MMSI: 366998440.

Date/timePositionNaut miles runAvg speedWind from/ knotsBaromVisibWave heightAir tempDewpointWater temp
2017-Dec-11 14:59N 47°16' W 122°25'0 0.1
2017-Dec-11 14:23N 47°16' W 122°25'0 0.1
2017-Dec-11 13:56N 47°16' W 122°25'0 0.0
2017-Dec-11 13:26N 47°16' W 122°25'0 0.1
2017-Dec-11 12:56N 47°16' W 122°25'0 0.1
2017-Dec-11 12:20N 47°16' W 122°25'0 0.0
2017-Dec-11 11:59N 47°16' W 122°25'0 0.0
2017-Dec-11 10:23N 47°16' W 122°25'0 0.0
2017-Dec-10 22:47N 47°16' W 122°25'1 2.4
2017-Dec-10 22:30N 47°17' W 122°25'1 0.8
2017-Dec-10 21:53N 47°17' W 122°25'0 0.0
2017-Dec-10 21:29N 47°17' W 122°25'0 0.0
2017-Dec-10 20:59N 47°17' W 122°25'0 0.0
2017-Dec-10 20:29N 47°17' W 122°25'0 0.0
2017-Dec-10 19:59N 47°17' W 122°25'0 0.0
2017-Dec-10 19:29N 47°17' W 122°25'0 0.0
2017-Dec-10 18:53N 47°17' W 122°25'0 0.0
2017-Dec-10 18:29N 47°17' W 122°25'0 0.0
2017-Dec-10 17:59N 47°17' W 122°25'0 0.0
2017-Dec-10 17:26N 47°17' W 122°25'0 0.0
2017-Dec-10 16:50N 47°17' W 122°25'0 0.0
2017-Dec-10 16:29N 47°17' W 122°25'0 0.0
2017-Dec-10 15:59N 47°17' W 122°25'0 0.0
2017-Dec-10 15:29N 47°17' W 122°25'0 0.0
2017-Dec-10 14:59N 47°17' W 122°25'0 0.0
2017-Dec-10 14:29N 47°17' W 122°25'0 0.0
2017-Dec-10 13:59N 47°17' W 122°25'0 0.0
2017-Dec-10 13:29N 47°17' W 122°25'0 0.1
2017-Dec-10 12:58N 47°17' W 122°25'2 3.4
2017-Dec-10 12:30N 47°17' W 122°27'0 0.8
2017-Dec-10 12:01N 47°17' W 122°27'2 3.2
2017-Dec-10 11:30N 47°19' W 122°29'1 2.1
2017-Dec-10 11:00N 47°18' W 122°28'0 0.3
2017-Dec-10 10:30N 47°18' W 122°28'2 3.7
2017-Dec-10 10:00N 47°19' W 122°28'2 3.4
2017-Dec-10 09:30N 47°21' W 122°26'2 3.5
2017-Dec-10 09:00N 47°22' W 122°24'2 3.3
2017-Dec-10 08:30N 47°23' W 122°22'1 2.8
2017-Dec-10 08:00N 47°24' W 122°22'2 3.9
2017-Dec-10 07:31N 47°26' W 122°24'2 3.7
2017-Dec-10 07:01N 47°27' W 122°25'2 3.6
2017-Dec-10 06:31N 47°29' W 122°26'2 3.3
2017-Dec-10 06:00N 47°31' W 122°26'2 3.5
2017-Dec-10 05:30N 47°32' W 122°27'2 3.8
2017-Dec-10 05:00N 47°34' W 122°28'2 3.3
2017-Dec-10 04:31N 47°36' W 122°26'2 4.3
2017-Dec-10 04:00N 47°36' W 122°23'2 3.8
2017-Dec-10 03:30N 47°36' W 122°21'0 0.6
2017-Dec-10 02:58N 47°35' W 122°21'0 0.0
2017-Dec-10 02:25N 47°35' W 122°21'0 0.1
2017-Dec-10 01:55N 47°35' W 122°21'0 0.1
2017-Dec-10 01:28N 47°35' W 122°21'0 0.0
2017-Dec-10 00:58N 47°35' W 122°21'0 0.0
2017-Dec-10 00:28N 47°35' W 122°21'0 0.0
2017-Dec-09 23:58N 47°35' W 122°21'0 0.0
2017-Dec-09 23:28N 47°35' W 122°21'0 0.0
2017-Dec-09 22:55N 47°35' W 122°21'0 0.0
2017-Dec-09 22:28N 47°35' W 122°21'0 0.0
2017-Dec-09 21:55N 47°35' W 122°21'0 0.0
2017-Dec-09 21:28N 47°35' W 122°21'1 1.8
2017-Dec-09 20:58N 47°34' W 122°21'0 0.1
2017-Dec-09 20:19N 47°34' W 122°21'0 0.2
2017-Dec-09 20:00N 47°34' W 122°21'0 0.0
2017-Dec-09 19:30N 47°34' W 122°21'0 0.0
2017-Dec-09 19:00N 47°34' W 122°21'0 0.0
2017-Dec-09 18:30N 47°34' W 122°21'0 0.0
2017-Dec-09 18:00N 47°34' W 122°21'0 0.0
2017-Dec-09 17:30N 47°34' W 122°21'0 0.0
2017-Dec-09 16:57N 47°34' W 122°21'0 0.0
2017-Dec-09 16:30N 47°34' W 122°21'0 0.0
2017-Dec-09 16:00N 47°34' W 122°21'0 0.0
2017-Dec-09 15:30N 47°34' W 122°21'0 0.0
2017-Dec-09 15:00N 47°34' W 122°21'0 0.0
2017-Dec-09 14:30N 47°34' W 122°21'0 0.0
2017-Dec-09 14:00N 47°34' W 122°21'0 0.0
2017-Dec-09 13:30N 47°34' W 122°21'0 0.0
2017-Dec-09 13:00N 47°34' W 122°21'0 0.0
2017-Dec-09 12:24N 47°34' W 122°21'0 0.0
2017-Dec-09 12:00N 47°34' W 122°21'0 0.0
2017-Dec-09 11:30N 47°34' W 122°21'0 0.1
2017-Dec-09 11:00N 47°34' W 122°21'0 0.1
2017-Dec-09 10:30N 47°34' W 122°21'0 0.0
2017-Dec-09 10:00N 47°34' W 122°21'0 0.0
2017-Dec-09 09:27N 47°34' W 122°21'0 0.0
2017-Dec-09 09:00N 47°34' W 122°21'0 0.0
2017-Dec-09 08:30N 47°34' W 122°21'0 0.0
2017-Dec-09 08:00N 47°34' W 122°21'0 0.0
2017-Dec-09 07:30N 47°34' W 122°21'0 0.0
2017-Dec-09 06:57N 47°34' W 122°21'0 0.0
2017-Dec-09 06:27N 47°34' W 122°21'0 0.0
2017-Dec-09 05:57N 47°34' W 122°21'0 0.0
2017-Dec-09 05:30N 47°34' W 122°21'0 0.0
2017-Dec-09 05:00N 47°34' W 122°21'0 0.0
2017-Dec-09 04:29N 47°34' W 122°21'0 0.0
2017-Dec-09 03:59N 47°34' W 122°21'0 0.0
2017-Dec-09 03:29N 47°34' W 122°21'0 0.0
2017-Dec-09 02:59N 47°34' W 122°21'0 0.0
2017-Dec-09 02:30N 47°34' W 122°21'0 0.0
2017-Dec-09 02:00N 47°34' W 122°21'0 0.0
2017-Dec-09 01:30N 47°34' W 122°21'0 0.0
2017-Dec-09 01:00N 47°34' W 122°21'0 0.1
2017-Dec-09 00:30N 47°34' W 122°21'0 0.0
2017-Dec-09 00:00N 47°34' W 122°21'0 0.0
2017-Dec-08 23:30N 47°34' W 122°21'0 0.0
2017-Dec-08 23:00N 47°34' W 122°21'0 0.0
2017-Dec-08 22:30N 47°34' W 122°21'0 0.0
2017-Dec-08 22:00N 47°34' W 122°21'0 0.0
2017-Dec-08 21:30N 47°34' W 122°21'0 0.1
2017-Dec-08 21:00N 47°34' W 122°21'0 0.0
2017-Dec-08 20:30N 47°34' W 122°21'0 0.0
2017-Dec-08 20:00N 47°34' W 122°21'0 0.0
2017-Dec-08 19:30N 47°34' W 122°21'0 0.1
2017-Dec-08 19:00N 47°34' W 122°21'0 0.0
2017-Dec-08 18:30N 47°34' W 122°21'0 0.0
2017-Dec-08 18:01N 47°34' W 122°21'0 0.0
2017-Dec-08 17:30N 47°34' W 122°21'0 0.0
2017-Dec-08 17:00N 47°34' W 122°21'0 0.0
2017-Dec-08 16:31N 47°34' W 122°21'0 0.1
2017-Dec-08 16:00N 47°34' W 122°21'0 0.0
2017-Dec-08 15:30N 47°34' W 122°21'0 0.0
2017-Dec-08 15:00N 47°34' W 122°21'0 0.0
2017-Dec-08 14:30N 47°34' W 122°21'0 0.0
2017-Dec-08 14:00N 47°34' W 122°21'0 0.0
2017-Dec-08 13:30N 47°34' W 122°21'0 0.0
2017-Dec-08 12:59N 47°34' W 122°21'0 0.0
2017-Dec-08 12:30N 47°34' W 122°21'0 0.0
2017-Dec-08 12:00N 47°34' W 122°21'0 0.0
2017-Dec-08 11:30N 47°34' W 122°21'0 0.0
2017-Dec-08 11:00N 47°34' W 122°21'0 0.0
2017-Dec-08 10:30N 47°34' W 122°21'0 0.0
2017-Dec-08 10:00N 47°34' W 122°21'0 0.0
2017-Dec-08 09:30N 47°34' W 122°21'0 0.0
2017-Dec-08 09:00N 47°34' W 122°21'0 0.0
2017-Dec-08 08:30N 47°34' W 122°21'0 0.0
2017-Dec-08 08:00N 47°34' W 122°21'0 0.0
2017-Dec-08 07:30N 47°34' W 122°21'0 0.0
2017-Dec-08 06:59N 47°34' W 122°21'0 0.0
2017-Dec-08 06:09N 47°34' W 122°21'0 0.0
2017-Dec-08 06:00N 47°34' W 122°21'0 0.0
2017-Dec-08 05:30N 47°34' W 122°21'0 0.0
2017-Dec-08 05:00N 47°34' W 122°21'0 0.0
2017-Dec-08 04:30N 47°34' W 122°21'0 0.0
2017-Dec-08 04:00N 47°34' W 122°21'0 0.0
2017-Dec-08 03:30N 47°34' W 122°21'0 0.0
2017-Dec-08 03:00N 47°34' W 122°21'0 0.0
2017-Dec-08 02:30N 47°34' W 122°21'1 2.4
2017-Dec-08 02:00N 47°36' W 122°21'3 6.0
2017-Dec-08 01:30N 47°35' W 122°25'3 6.1
2017-Dec-08 01:00N 47°32' W 122°25'3 6.3
2017-Dec-08 00:30N 47°29' W 122°24'3 6.1
2017-Dec-08 00:00N 47°26' W 122°23'3 6.7
2017-Dec-07 23:30N 47°23' W 122°21'3 6.4
2017-Dec-07 23:00N 47°21' W 122°24'3 6.5
2017-Dec-07 22:30N 47°18' W 122°27'3 6.0
2017-Dec-07 21:59N 47°16' W 122°24'1 2.4
2017-Dec-07 21:30N 47°15' W 122°23'0 0.0
2017-Dec-07 21:00N 47°15' W 122°23'0 0.0
2017-Dec-07 20:30N 47°15' W 122°23'0 1.0
2017-Dec-07 20:00N 47°16' W 122°23'0 1.0
2017-Dec-07 19:30N 47°15' W 122°23'0 0.0
2017-Dec-07 19:00N 47°15' W 122°23'0 0.0
2017-Dec-07 18:30N 47°15' W 122°23'0 0.0
2017-Dec-07 18:00N 47°15' W 122°23'1 1.8
2017-Dec-07 17:25N 47°16' W 122°24'1 1.4
2017-Dec-07 17:00N 47°16' W 122°23'1 1.1
2017-Dec-07 16:30N 47°15' W 122°23'0 0.0
2017-Dec-07 16:00N 47°15' W 122°23'0 0.0
2017-Dec-07 15:21N 47°15' W 122°23'0 0.0
2017-Dec-07 15:00N 47°15' W 122°23'0 0.0
2017-Dec-07 14:00N 47°15' W 122°23'0 0.0
2017-Dec-07 13:30N 47°15' W 122°23'0 0.0
2017-Dec-07 12:54N 47°15' W 122°23'0 0.0
2017-Dec-07 12:30N 47°15' W 122°23'0 0.0
2017-Dec-07 11:55N 47°15' W 122°23'0 0.0
2017-Dec-07 11:22N 47°15' W 122°23'0 0.3
2017-Dec-07 11:00N 47°15' W 122°23'0 0.1
2017-Dec-07 10:29N 47°15' W 122°23'2 3.2
2017-Dec-07 10:00N 47°16' W 122°24'1 0.1
2017-Dec-07 02:18N 47°17' W 122°25'1 2.5
2017-Dec-07 01:57N 47°16' W 122°24'1 2.0
2017-Dec-07 01:30N 47°16' W 122°23'0 0.0
2017-Dec-07 00:58N 47°16' W 122°23'0 0.0
2017-Dec-07 00:30N 47°16' W 122°23'0 0.0
2017-Dec-06 23:59N 47°16' W 122°23'0 0.0
2017-Dec-06 23:30N 47°16' W 122°23'1 2.7
2017-Dec-06 23:00N 47°16' W 122°25'0 0.3
2017-Dec-06 22:30N 47°17' W 122°25'0 0.0
2017-Dec-06 22:00N 47°17' W 122°25'0 0.0
2017-Dec-06 21:30N 47°17' W 122°25'0 0.0
2017-Dec-06 21:00N 47°17' W 122°25'  
2017-Dec-04 06:36N 47°17' W 122°24'0 3.9
2017-Dec-04 06:30N 47°17' W 122°25'1 2.7
2017-Dec-04 06:00N 47°18' W 122°27'3 6.2
2017-Dec-04 05:30N 47°21' W 122°26'4 7.1
2017-Dec-04 05:00N 47°23' W 122°22'3 6.8
2017-Dec-04 04:30N 47°26' W 122°24'3 6.9
2017-Dec-04 04:00N 47°29' W 122°26'3 6.9
2017-Dec-04 03:30N 47°33' W 122°27'3 6.5
2017-Dec-04 03:00N 47°36' W 122°25'2 4.8
2017-Dec-04 02:30N 47°36' W 122°21'0 0.3
2017-Dec-04 02:00N 47°35' W 122°21'0 0.0
2017-Dec-04 01:30N 47°35' W 122°21'0 0.0
2017-Dec-04 01:00N 47°35' W 122°21'0 0.0
2017-Dec-04 00:30N 47°35' W 122°21'0 0.0
2017-Dec-04 00:00N 47°35' W 122°21'0 0.0
2017-Dec-03 23:30N 47°35' W 122°21'0 0.0
2017-Dec-03 23:00N 47°35' W 122°21'0 0.2
2017-Dec-03 22:30N 47°35' W 122°21'1 1.8
2017-Dec-03 22:00N 47°34' W 122°21'0 0.0
2017-Dec-03 21:30N 47°34' W 122°21'0 0.0
2017-Dec-03 21:00N 47°34' W 122°21'0 0.0
2017-Dec-03 20:30N 47°34' W 122°21'0 0.0
2017-Dec-03 20:00N 47°34' W 122°21'0 0.0
2017-Dec-03 19:30N 47°34' W 122°21'0 0.0
2017-Dec-03 19:00N 47°34' W 122°21'0 0.0
2017-Dec-03 18:30N 47°34' W 122°21'0 0.0
2017-Dec-03 18:00N 47°34' W 122°21'0 0.0
2017-Dec-03 17:30N 47°34' W 122°21'0 0.0
2017-Dec-03 17:00N 47°34' W 122°21'1 1.3
2017-Dec-03 16:30N 47°35' W 122°21'1 1.1
2017-Dec-03 16:00N 47°36' W 122°21'0 0.3
2017-Dec-03 15:30N 47°35' W 122°21'0 0.1
2017-Dec-03 15:00N 47°35' W 122°21'0 0.0
2017-Dec-03 14:30N 47°35' W 122°21'0 0.0
2017-Dec-03 14:00N 47°35' W 122°21'0 0.0
2017-Dec-03 13:30N 47°35' W 122°21'0 0.0
2017-Dec-03 13:00N 47°35' W 122°21'0 0.0
2017-Dec-03 12:30N 47°35' W 122°21'0 0.0
2017-Dec-03 12:00N 47°35' W 122°21'0 0.0
2017-Dec-03 11:30N 47°35' W 122°21'0 0.0
2017-Dec-03 11:00N 47°35' W 122°21'0 0.0
2017-Dec-03 10:30N 47°35' W 122°21'0 0.0
2017-Dec-03 10:00N 47°35' W 122°21'0 0.0
2017-Dec-03 09:30N 47°35' W 122°21'0 0.0
2017-Dec-03 09:00N 47°35' W 122°21'0 0.0
2017-Dec-03 08:30N 47°35' W 122°21'0 0.0
2017-Dec-03 08:00N 47°35' W 122°21'0 0.0
2017-Dec-03 07:30N 47°35' W 122°21'0 0.0
2017-Dec-03 07:00N 47°35' W 122°21'0 0.0
2017-Dec-03 06:30N 47°35' W 122°21'0 0.0
2017-Dec-03 06:00N 47°35' W 122°21'0 0.0
2017-Dec-03 05:30N 47°35' W 122°21'0 0.0
2017-Dec-03 05:00N 47°35' W 122°21'0 0.0
2017-Dec-03 04:30N 47°35' W 122°21'0 0.0
2017-Dec-03 04:00N 47°35' W 122°21'0 0.1
2017-Dec-03 03:30N 47°35' W 122°21'0 0.7
2017-Dec-03 03:00N 47°35' W 122°21'0 0.1
2017-Dec-03 02:30N 47°35' W 122°21'0 0.3
2017-Dec-03 02:00N 47°35' W 122°21'0 0.0
2017-Dec-03 01:30N 47°35' W 122°21'0 0.0
2017-Dec-03 01:00N 47°35' W 122°21'0 0.0
2017-Dec-03 00:30N 47°35' W 122°21'0 0.0
2017-Dec-03 00:01N 47°35' W 122°21'0 0.0
2017-Dec-02 23:30N 47°35' W 122°21'0 0.0
2017-Dec-02 23:00N 47°35' W 122°21'0 0.0
2017-Dec-02 22:30N 47°35' W 122°21'0 0.0
2017-Dec-02 22:00N 47°35' W 122°21'0 0.1
2017-Dec-02 21:30N 47°35' W 122°21'0 0.3
2017-Dec-02 21:00N 47°35' W 122°21'0 0.0
2017-Dec-02 20:30N 47°35' W 122°21'0 0.1
2017-Dec-02 20:00N 47°35' W 122°21'0 0.1
2017-Dec-02 19:30N 47°35' W 122°21'0 0.0
2017-Dec-02 19:00N 47°35' W 122°21'0 0.0
2017-Dec-02 18:30N 47°35' W 122°21'0 0.0
2017-Dec-02 18:01N 47°35' W 122°21'0 0.0
2017-Dec-02 17:30N 47°35' W 122°21'0 0.0
2017-Dec-02 17:00N 47°35' W 122°21'0 0.0
2017-Dec-02 16:30N 47°35' W 122°21'0 0.0
2017-Dec-02 16:00N 47°35' W 122°21'0 0.0
2017-Dec-02 15:30N 47°35' W 122°21'0 0.0
2017-Dec-02 15:01N 47°35' W 122°21'0 0.2
2017-Dec-02 14:30N 47°35' W 122°21'0 0.2
2017-Dec-02 14:00N 47°35' W 122°21'1 1.3
2017-Dec-02 13:30N 47°35' W 122°21'0 0.1
2017-Dec-02 13:00N 47°35' W 122°21'0 0.1
2017-Dec-02 12:31N 47°35' W 122°21'0 0.1
2017-Dec-02 12:00N 47°35' W 122°21'0 0.0
2017-Dec-02 11:30N 47°35' W 122°21'0 0.0
2017-Dec-02 11:00N 47°35' W 122°21'0 0.0
2017-Dec-02 10:30N 47°35' W 122°21'0 0.0
2017-Dec-02 10:00N 47°35' W 122°21'0 0.0
2017-Dec-02 09:30N 47°35' W 122°21'0 0.0
2017-Dec-02 09:00N 47°35' W 122°21'0 0.0
2017-Dec-02 08:30N 47°35' W 122°21'0 0.0
2017-Dec-02 08:00N 47°35' W 122°21'0 0.0
2017-Dec-02 07:30N 47°35' W 122°21'0 0.0
2017-Dec-02 07:00N 47°35' W 122°21'0 0.0
2017-Dec-02 06:30N 47°35' W 122°21'0 0.0
2017-Dec-02 06:00N 47°35' W 122°21'0 0.0
2017-Dec-02 05:30N 47°35' W 122°21'0 0.0
2017-Dec-02 05:00N 47°35' W 122°21'0 0.0
2017-Dec-02 04:30N 47°35' W 122°21'0 0.0
2017-Dec-02 04:00N 47°35' W 122°21'0 0.0
2017-Dec-02 03:30N 47°35' W 122°21'0 0.0
2017-Dec-02 03:00N 47°35' W 122°21'0 0.0
2017-Dec-02 02:30N 47°35' W 122°21'0 0.0
2017-Dec-02 02:00N 47°35' W 122°21'0 0.4
2017-Dec-02 01:30N 47°36' W 122°21'0 0.2
2017-Dec-02 01:00N 47°36' W 122°21'0 0.2
2017-Dec-02 00:30N 47°35' W 122°21'1 2.1
2017-Dec-02 00:00N 47°34' W 122°21'0 0.1
2017-Dec-01 23:30N 47°34' W 122°21'0 0.0
2017-Dec-01 22:59N 47°34' W 122°21'0 0.0
2017-Dec-01 22:30N 47°34' W 122°21'0 0.0
2017-Dec-01 22:01N 47°34' W 122°21'0 0.0
2017-Dec-01 21:30N 47°34' W 122°21'1 2.3
2017-Dec-01 21:00N 47°35' W 122°21'0 0.0
2017-Dec-01 20:30N 47°35' W 122°21'0 0.1
2017-Dec-01 20:00N 47°35' W 122°21'0 0.1
2017-Dec-01 19:30N 47°35' W 122°21'0 0.1
2017-Dec-01 19:00N 47°35' W 122°21'0 0.1
2017-Dec-01 18:30N 47°35' W 122°21'0 0.1
2017-Dec-01 18:00N 47°35' W 122°21'0 0.0
2017-Dec-01 17:30N 47°35' W 122°21'0 0.0
2017-Dec-01 17:00N 47°35' W 122°21'0 0.0
2017-Dec-01 16:30N 47°35' W 122°21'0 0.0
2017-Dec-01 16:00N 47°35' W 122°21'0 0.0
2017-Dec-01 15:30N 47°35' W 122°21'0 0.0
2017-Dec-01 15:00N 47°35' W 122°21'  

Dump ship's entire track history